Escanaba, MI

9:45 PM EST on November 22, 2017 (GMT -0500)
Delta County

Weather History for KESC - October, 2012

Change the Weather History Date:

Tuesday, October 30, 2012

  Actual Average Record
Temperature  
Mean Temperature 37 °F -  
Max Temperature 39 °F 50 °F 67 °F (1950)
Min Temperature 35 °F 35 °F 19 °F (1988)
Degree Days  
Heating Degree Days 28    
Moisture  
Dew Point 25 °F    
Average Humidity 61    
Maximum Humidity 75    
Minimum Humidity 42    
Precipitation  
Precipitation 0.00 in - - ()
Sea Level Pressure  
Sea Level Pressure 29.96 in    
Wind  
Wind Speed 15 mph (North)    
Max Wind Speed 24 mph    
Max Gust Speed 41 mph    
Visibility 10 miles    
Events      
Averages and records for this station are not official NWS values.
T = Trace of Precipitation, MM = Missing Value Source: NWS Daily Summary

Daily Weather History Graph

Daily Weather History Graph

Search for Another Location

Airport or City:

Trip Planner

Search our weather history database for the weather conditions in past years. The results will help you decide how hot, cold, wet, or windy it might be!

Date:

Astronomy

Oct. 30, 2012 Rise Set
Actual Time 8:26 AM EDT 6:37 PM EDT
Civil Twilight 7:55 AM EDT 7:08 PM EDT
Nautical Twilight 7:20 AM EDT 7:43 PM EDT
Astronomical Twilight 6:45 AM EDT 8:17 PM EDT
Moon 7:01 PM EDT (10/30) 9:16 AM EDT (10/30)
Length of Visible Light 11h 12m
Length of Day
10h 10m
Full, 99% of the Moon is Illuminated
Oct 30
Full
Nov 6
Last Quarter
Nov 13
New
Nov 20
First Quarter
Nov 28
Full

Hourly Weather History & Observations

Time (EDT) Temp. Windchill Dew Point Humidity Pressure Visibility Wind Dir Wind Speed Gust Speed Precip Events Conditions
12:15 AM 37.4 °F 30.8 °F 26.6 °F 65% 30.18 in 10.0 mi NNW 9.2 mph - N/A   Scattered Clouds
12:35 AM 39.2 °F 33.0 °F 26.6 °F 61% 30.17 in 10.0 mi North 9.2 mph - N/A   Partly Cloudy
12:55 AM 39.2 °F 33.6 °F 24.8 °F 56% 30.16 in 10.0 mi North 8.1 mph - N/A   Partly Cloudy
1:15 AM 39.2 °F 33.6 °F 24.8 °F 56% 30.14 in 10.0 mi NNE 8.1 mph 20.7 mph N/A   Partly Cloudy
1:35 AM 39.2 °F 32.0 °F 24.8 °F 56% 30.14 in 10.0 mi North 11.5 mph 23.0 mph N/A   Partly Cloudy
1:55 AM 39.2 °F 31.6 °F 24.8 °F 56% 30.13 in 10.0 mi North 12.7 mph 20.7 mph N/A   Partly Cloudy
2:15 AM 39.2 °F 30.2 °F 24.8 °F 56% 30.12 in 10.0 mi North 17.3 mph 25.3 mph N/A   Clear
2:35 AM 39.2 °F 32.5 °F 23.0 °F 52% 30.11 in 10.0 mi North 10.4 mph 19.6 mph N/A   Clear
3:55 AM 39.2 °F 31.2 °F 17.6 °F 42% 30.08 in 10.0 mi North 13.8 mph 26.5 mph N/A   Clear
4:15 AM 39.2 °F 31.2 °F 19.4 °F 45% 30.07 in 10.0 mi North 13.8 mph 21.9 mph N/A   Clear
4:55 AM 39.2 °F 32.0 °F 23.0 °F 52% 30.06 in 10.0 mi North 11.5 mph 24.2 mph N/A   Clear
5:15 AM 39.2 °F 31.6 °F 24.8 °F 56% 30.06 in 10.0 mi North 12.7 mph 23.0 mph N/A   Clear
5:35 AM 39.2 °F 31.6 °F 24.8 °F 56% 30.05 in 10.0 mi North 12.7 mph 23.0 mph N/A   Clear
5:55 AM 37.4 °F 29.3 °F 24.8 °F 60% 30.05 in 10.0 mi North 12.7 mph 20.7 mph N/A   Clear
6:15 AM 37.4 °F 29.3 °F 24.8 °F 60% 30.05 in 10.0 mi North 12.7 mph 26.5 mph N/A   Clear
6:35 AM 37.4 °F 28.5 °F 23.0 °F 56% 30.05 in 10.0 mi North 15.0 mph 24.2 mph N/A   Clear
6:55 AM 37.4 °F 28.9 °F 24.8 °F 60% 30.04 in 10.0 mi North 13.8 mph 25.3 mph N/A   Clear
7:15 AM 37.4 °F 26.9 °F 21.2 °F 52% 30.03 in 10.0 mi North 20.7 mph 31.1 mph N/A   Clear
7:35 AM 37.4 °F 28.2 °F 21.2 °F 52% 30.03 in 10.0 mi North 16.1 mph 31.1 mph N/A   Clear
8:15 AM 37.4 °F 27.8 °F 21.2 °F 52% 30.02 in 10.0 mi North 17.3 mph 34.5 mph N/A   Clear
8:35 AM 37.4 °F 28.5 °F 21.2 °F 52% 30.02 in 10.0 mi North 15.0 mph 26.5 mph N/A   Clear
8:55 AM 37.4 °F 28.2 °F 21.2 °F 52% 30.02 in 10.0 mi North 16.1 mph 29.9 mph N/A   Clear
9:15 AM 37.4 °F 27.5 °F 21.2 °F 52% 30.01 in 10.0 mi North 18.4 mph 28.8 mph N/A   Clear
9:35 AM 37.4 °F 27.8 °F 21.2 °F 52% 30.01 in 8.0 mi North 17.3 mph 32.2 mph N/A   Clear
9:55 AM 37.4 °F 27.5 °F 21.2 °F 52% 30.01 in 10.0 mi North 18.4 mph 32.2 mph N/A   Clear
10:15 AM 37.4 °F 28.2 °F 21.2 °F 52% 30.00 in 9.0 mi North 16.1 mph 29.9 mph N/A   Clear
10:35 AM 37.4 °F 27.5 °F 21.2 °F 52% 29.99 in 10.0 mi North 18.4 mph 32.2 mph N/A   Clear
10:55 AM 37.4 °F 27.2 °F 21.2 °F 52% 29.98 in 10.0 mi North 19.6 mph 29.9 mph N/A   Clear
11:15 AM 37.4 °F 27.5 °F 21.2 °F 52% 29.97 in 10.0 mi North 18.4 mph 32.2 mph N/A   Clear
11:35 AM 39.2 °F 29.6 °F 21.2 °F 49% 29.97 in 10.0 mi North 19.6 mph 33.4 mph N/A   Clear
11:55 AM 39.2 °F 31.6 °F 21.2 °F 49% 29.96 in 10.0 mi North 12.7 mph 26.5 mph N/A   Clear
12:15 PM 39.2 °F 30.5 °F 21.2 °F 49% 29.96 in 10.0 mi North 16.1 mph 27.6 mph N/A   Clear
12:35 PM 39.2 °F 29.8 °F 21.2 °F 49% 29.95 in 10.0 mi North 18.4 mph 35.7 mph N/A   Partly Cloudy
12:55 PM 39.2 °F 29.3 °F 23.0 °F 52% 29.94 in 10.0 mi North 20.7 mph 28.8 mph N/A   Clear
1:15 PM 39.2 °F 29.0 °F 23.0 °F 52% 29.93 in 10.0 mi North 21.9 mph 34.5 mph N/A   Mostly Cloudy
1:35 PM 39.2 °F 29.0 °F 23.0 °F 52% 29.92 in 10.0 mi North 21.9 mph 32.2 mph N/A   Mostly Cloudy
1:55 PM 39.2 °F 28.7 °F 24.8 °F 56% 29.92 in 10.0 mi North 23.0 mph 32.2 mph N/A   Scattered Clouds
2:15 PM 39.2 °F 29.0 °F 24.8 °F 56% 29.91 in 10.0 mi NNW 21.9 mph 33.4 mph N/A   Mostly Cloudy
2:35 PM 39.2 °F 30.5 °F 24.8 °F 56% 29.90 in 10.0 mi NNW 16.1 mph 36.8 mph N/A   Overcast
2:55 PM 39.2 °F 28.5 °F 24.8 °F 56% 29.90 in 10.0 mi North 24.2 mph 31.1 mph N/A   Overcast
3:15 PM 39.2 °F 29.0 °F 24.8 °F 56% 29.89 in 10.0 mi NNW 21.9 mph 38.0 mph N/A   Overcast
3:35 PM 39.2 °F 28.7 °F 24.8 °F 56% 29.89 in 10.0 mi NNW 23.0 mph 36.8 mph N/A   Overcast
3:55 PM 37.4 °F 26.6 °F 26.6 °F 65% 29.89 in 10.0 mi NNW 21.9 mph 34.5 mph N/A   Overcast
4:15 PM 37.4 °F 27.8 °F 26.6 °F 65% 29.88 in 10.0 mi NNW 17.3 mph 38.0 mph N/A   Overcast
4:35 PM 37.4 °F 28.2 °F 26.6 °F 65% 29.88 in 10.0 mi NNW 16.1 mph 28.8 mph N/A   Overcast
4:55 PM 37.4 °F 28.5 °F 26.6 °F 65% 29.88 in 10.0 mi NNW 15.0 mph 39.1 mph N/A   Overcast
5:15 PM 37.4 °F 28.2 °F 26.6 °F 65% 29.88 in 10.0 mi NNW 16.1 mph 33.4 mph N/A   Overcast
5:35 PM 37.4 °F 26.4 °F 26.6 °F 65% 29.87 in 10.0 mi North 23.0 mph 34.5 mph N/A   Overcast
5:55 PM 37.4 °F 27.8 °F 26.6 °F 65% 29.88 in 10.0 mi North 17.3 mph 41.4 mph N/A   Overcast
6:15 PM 37.4 °F 26.4 °F 28.4 °F 70% 29.88 in 10.0 mi North 23.0 mph 32.2 mph N/A   Overcast
6:35 PM 35.6 °F 25.2 °F 28.4 °F 75% 29.88 in 10.0 mi North 18.4 mph 34.5 mph N/A   Overcast
6:55 PM 35.6 °F 25.5 °F 28.4 °F 75% 29.88 in 10.0 mi NNW 17.3 mph 29.9 mph N/A   Overcast
7:15 PM 35.6 °F 24.8 °F 28.4 °F 75% 29.88 in 10.0 mi NNW 19.6 mph 28.8 mph N/A   Overcast
7:35 PM 35.6 °F 26.2 °F 28.4 °F 75% 29.89 in 10.0 mi North 15.0 mph 28.8 mph N/A   Overcast
7:55 PM 35.6 °F 25.2 °F 28.4 °F 75% 29.89 in 10.0 mi North 18.4 mph 27.6 mph N/A   Overcast
8:15 PM 35.6 °F 25.9 °F 28.4 °F 75% 29.88 in 10.0 mi NNW 16.1 mph 33.4 mph N/A   Overcast
8:35 PM 35.6 °F 27.1 °F 28.4 °F 75% 29.88 in 10.0 mi North 12.7 mph 25.3 mph N/A   Overcast
8:55 PM 35.6 °F 26.6 °F 28.4 °F 75% 29.88 in 10.0 mi NNW 13.8 mph 24.2 mph N/A   Overcast
9:15 PM 35.6 °F 26.2 °F 28.4 °F 75% 29.87 in 10.0 mi North 15.0 mph 32.2 mph N/A   Overcast
9:35 PM 35.6 °F 26.2 °F 28.4 °F 75% 29.87 in 10.0 mi North 15.0 mph 29.9 mph N/A   Overcast
9:55 PM 35.6 °F 26.2 °F 28.4 °F 75% 29.86 in 10.0 mi North 15.0 mph 31.1 mph N/A   Overcast
10:15 PM 35.6 °F 25.5 °F 28.4 °F 75% 29.86 in 10.0 mi North 17.3 mph 29.9 mph N/A   Overcast
10:35 PM 35.6 °F 24.5 °F 28.4 °F 75% 29.85 in 10.0 mi North 20.7 mph 32.2 mph N/A   Overcast
10:55 PM 35.6 °F 25.2 °F 28.4 °F 75% 29.84 in 10.0 mi North 18.4 mph 28.8 mph N/A   Overcast
11:15 PM 35.6 °F 25.9 °F 28.4 °F 75% 29.84 in 10.0 mi North 16.1 mph 29.9 mph N/A   Overcast
11:35 PM 35.6 °F 27.5 °F 28.4 °F 75% 29.84 in 10.0 mi North 11.5 mph 31.1 mph N/A   Overcast
11:55 PM 35.6 °F 26.2 °F 28.4 °F 75% 29.83 in 10.0 mi North 15.0 mph 24.2 mph N/A   Overcast